Time;durP1;ratioP1;P1;durP2;ratioP2;P2;SDS_P1;SDS_P2;PMS_P1;PMS_P2;Temp;Humidity;BMP_temperature;BMP_pressure;BME280_temperature;BME280_humidity;BME280_pressure;Samples;Min_cycle;Max_cycle;Signal;HPM_P1;HPM_P2
2023/05/18 00:00:22;;;;;;;10.90;3.10;;;;;;;8.40;74.34;101279.18;103766;278;188920;-71
2023/05/18 00:03:17;;;;;;;6.70;2.50;;;;;;;8.36;74.33;101277.15;103823;278;38274;-71
2023/05/18 00:05:51;;;;;;;8.90;3.00;;;;;;;8.35;74.66;101276.11;103875;278;38234;-72
2023/05/18 00:08:26;;;;;;;8.90;2.40;;;;;;;8.33;74.74;101276.48;103776;278;39998;-71
2023/05/18 00:11:00;;;;;;;8.00;2.20;;;;;;;8.33;75.13;101278.57;103816;278;38534;-71
2023/05/18 00:13:36;;;;;;;9.80;2.50;;;;;;;8.32;75.03;101282.41;103849;278;38469;-70
2023/05/18 00:16:14;;;;;;;9.40;2.60;;;;;;;8.30;75.05;101281.55;103832;278;39016;-72
2023/05/18 00:18:48;;;;;;;6.80;2.30;;;;;;;8.28;75.14;101285.76;103837;278;38235;-70
2023/05/18 00:21:32;;;;;;;9.00;3.20;;;;;;;8.27;75.41;101286.29;103776;278;38969;-72
2023/05/18 00:24:07;;;;;;;8.60;2.90;;;;;;;8.24;75.46;101288.94;103809;278;38311;-72
2023/05/18 00:26:41;;;;;;;10.40;2.50;;;;;;;8.23;75.64;101291.91;103804;278;38537;-72
2023/05/18 00:29:18;;;;;;;6.90;2.60;;;;;;;8.21;75.49;101292.29;103789;278;39408;-72
2023/05/18 00:31:52;;;;;;;11.60;2.80;;;;;;;8.19;75.63;101292.66;103825;278;38283;-72
2023/05/18 00:34:28;;;;;;;10.30;3.80;;;;;;;8.17;75.81;101290.61;103792;278;38885;-72
2023/05/18 00:37:05;;;;;;;13.10;4.10;;;;;;;8.15;75.74;101291.85;103798;278;38380;-72
2023/05/18 00:39:39;;;;;;;11.40;4.50;;;;;;;8.12;75.68;101292.92;103820;278;38854;-69
2023/05/18 00:42:13;;;;;;;8.70;3.40;;;;;;;8.11;75.91;101293.64;103836;278;38525;-71
2023/05/18 00:44:51;;;;;;;9.70;3.30;;;;;;;8.09;76.07;101296.98;103804;278;38353;-73
2023/05/18 00:47:26;;;;;;;9.00;3.00;;;;;;;8.06;76.22;101295.27;103831;278;38830;-72
2023/05/18 00:50:01;;;;;;;14.00;3.80;;;;;;;8.05;76.34;101293.55;103791;278;39112;-72
2023/05/18 00:52:40;;;;;;;12.00;3.40;;;;;;;8.02;76.35;101294.63;103792;278;38335;-72
2023/05/18 00:55:16;;;;;;;12.30;3.60;;;;;;;7.98;76.35;101299.36;103691;278;175418;-72
2023/05/18 00:57:55;;;;;;;8.60;3.00;;;;;;;7.94;76.75;101304.10;103802;278;38834;-72
2023/05/18 01:00:30;;;;;;;8.30;3.50;;;;;;;7.88;77.03;101305.05;103799;278;38447;-69
2023/05/18 01:03:08;;;;;;;12.00;2.60;;;;;;;7.85;77.08;101312.73;103790;278;39507;-69
2023/05/18 01:05:42;;;;;;;8.20;2.50;;;;;;;7.81;76.87;101310.17;103827;278;39697;-72
2023/05/18 01:08:17;;;;;;;9.60;2.50;;;;;;;7.75;77.05;101311.27;103815;278;38591;-72
2023/05/18 01:10:54;;;;;;;9.30;3.40;;;;;;;7.69;77.33;101313.95;103835;278;39663;-71
2023/05/18 01:13:36;;;;;;;13.10;4.90;;;;;;;7.63;77.23;101315.75;103881;278;38473;-72
2023/05/18 01:16:25;;;;;;;9.60;4.70;;;;;;;7.56;77.54;101314.61;103915;278;38782;-71
2023/05/18 01:19:12;;;;;;;10.80;5.00;;;;;;;7.50;77.80;101316.40;103899;278;38470;-72
2023/05/18 01:21:57;;;;;;;9.10;3.50;;;;;;;7.40;78.31;101316.16;103826;278;39394;-72
2023/05/18 01:24:43;;;;;;;8.10;3.40;;;;;;;7.37;78.62;101315.66;103912;278;39436;-71
2023/05/18 01:27:24;;;;;;;6.60;2.40;;;;;;;7.40;78.66;101316.34;103730;278;175384;-71
2023/05/18 01:30:03;;;;;;;6.80;2.30;;;;;;;7.39;78.79;101318.08;103845;278;38400;-72
2023/05/18 01:32:45;;;;;;;8.10;2.10;;;;;;;7.34;78.73;101322.46;103841;278;38566;-72
2023/05/18 01:35:26;;;;;;;8.30;2.10;;;;;;;7.25;78.70;101319.26;103806;278;39633;-69
2023/05/18 01:38:01;;;;;;;7.00;2.00;;;;;;;7.16;78.71;101319.67;103718;278;175176;-71
2023/05/18 01:40:40;;;;;;;7.40;2.60;;;;;;;7.11;78.96;101327.53;103805;278;38466;-70
2023/05/18 01:43:20;;;;;;;7.10;2.20;;;;;;;7.08;79.16;101325.13;103765;278;38745;-72
2023/05/18 01:45:58;;;;;;;9.60;2.30;;;;;;;7.03;79.46;101327.23;103823;278;39674;-71
2023/05/18 01:48:36;;;;;;;8.10;2.80;;;;;;;6.98;79.60;101326.24;103823;278;39953;-72
2023/05/18 01:51:12;;;;;;;10.80;2.70;;;;;;;6.93;79.69;101324.20;103774;278;38461;-71
2023/05/18 01:53:51;;;;;;;13.50;2.90;;;;;;;6.88;79.87;101321.82;103733;278;38616;-71
2023/05/18 01:56:26;;;;;;;7.10;2.30;;;;;;;6.86;80.13;101321.48;103797;278;38356;-73
2023/05/18 01:59:00;;;;;;;12.10;3.20;;;;;;;6.87;80.30;101316.28;103788;278;38641;-72
2023/05/18 02:01:44;;;;;;;7.30;2.20;;;;;;;6.84;80.35;101322.55;103696;278;39457;-72
2023/05/18 02:04:21;;;;;;;10.20;2.80;;;;;;;6.76;80.43;101322.25;103797;278;39448;-71
2023/05/18 02:07:00;;;;;;;9.30;2.00;;;;;;;6.70;80.59;101327.31;103808;278;38293;-70
2023/05/18 02:09:34;;;;;;;7.00;2.50;;;;;;;6.62;80.55;101333.78;103858;278;39273;-72
2023/05/18 02:12:13;;;;;;;9.30;3.20;;;;;;;6.57;80.71;101339.19;103853;278;38516;-71
2023/05/18 02:14:49;;;;;;;8.60;3.90;;;;;;;6.53;81.12;101343.90;103882;278;38505;-71
2023/05/18 02:17:27;;;;;;;11.00;3.90;;;;;;;6.50;81.23;101347.56;103692;280;38522;-70
2023/05/18 02:20:02;;;;;;;9.70;3.80;;;;;;;6.46;81.22;101349.14;103892;278;38915;-71
2023/05/18 02:22:39;;;;;;;9.80;3.60;;;;;;;6.39;81.35;101348.65;103939;278;38395;-71
2023/05/18 02:25:13;;;;;;;7.60;2.90;;;;;;;6.31;81.31;101348.52;103888;278;38534;-71
2023/05/18 02:27:47;;;;;;;7.30;2.50;;;;;;;6.25;81.44;101345.44;103841;278;38346;-70
2023/05/18 02:30:21;;;;;;;5.20;2.70;;;;;;;6.18;81.72;101350.14;103812;278;38508;-71
2023/05/18 02:33:00;;;;;;;9.70;2.50;;;;;;;6.14;81.89;101348.08;103814;278;38483;-71
2023/05/18 02:35:37;;;;;;;6.50;3.00;;;;;;;6.08;82.20;101346.36;103710;278;172882;-71
2023/05/18 02:38:12;;;;;;;7.90;2.40;;;;;;;6.04;82.18;101348.46;103805;278;38251;-72
2023/05/18 02:40:46;;;;;;;6.90;2.30;;;;;;;5.95;82.32;101353.70;103781;278;39786;-71
2023/05/18 02:43:20;;;;;;;7.50;2.40;;;;;;;5.88;82.50;101358.36;103773;278;39453;-70
2023/05/18 02:45:58;;;;;;;7.40;2.20;;;;;;;5.81;82.63;101360.45;103872;277;38326;-72
2023/05/18 02:48:34;;;;;;;7.50;1.90;;;;;;;5.77;83.06;101361.32;103831;277;38472;-70
2023/05/18 02:51:08;;;;;;;6.50;1.90;;;;;;;5.74;83.30;101361.52;103837;277;38274;-71
2023/05/18 02:53:44;;;;;;;9.20;1.90;;;;;;;5.71;83.46;101361.70;103718;277;38764;-72
2023/05/18 02:56:18;;;;;;;13.30;3.00;;;;;;;5.66;83.48;101364.98;103848;278;38218;-71
2023/05/18 02:58:56;;;;;;;4.20;1.60;;;;;;;5.63;83.63;101364.13;103827;277;38708;-72
2023/05/18 03:01:35;;;;;;;10.50;2.50;;;;;;;5.56;83.64;101366.73;103757;266;175582;-71
2023/05/18 03:04:10;;;;;;;7.40;2.00;;;;;;;5.53;84.00;101369.86;103870;277;38577;-72
2023/05/18 03:06:45;;;;;;;7.00;1.90;;;;;;;5.49;84.17;101376.61;103855;278;38390;-73
2023/05/18 03:09:21;;;;;;;4.10;1.90;;;;;;;5.47;84.57;101377.48;103737;277;175522;-70
2023/05/18 03:11:57;;;;;;;8.60;2.50;;;;;;;5.47;84.75;101382.84;103860;278;39751;-72
2023/05/18 03:14:33;;;;;;;6.40;1.70;;;;;;;5.47;84.94;101389.42;103830;278;40274;-71
2023/05/18 03:17:10;;;;;;;3.70;1.80;;;;;;;5.47;85.02;101389.25;103833;278;40064;-72
2023/05/18 03:19:46;;;;;;;6.10;1.70;;;;;;;5.48;85.20;101386.48;103869;277;38302;-72
2023/05/18 03:22:26;;;;;;;7.40;2.00;;;;;;;5.47;85.20;101391.66;103845;277;38991;-71
2023/05/18 03:25:01;;;;;;;5.40;2.50;;;;;;;5.48;85.47;101395.99;103864;278;38279;-72
2023/05/18 03:27:37;;;;;;;10.50;3.10;;;;;;;5.50;85.71;101397.36;103893;277;38844;-72
2023/05/18 03:30:18;;;;;;;8.10;3.80;;;;;;;5.55;85.89;101401.70;103915;277;40274;-71
2023/05/18 03:32:52;;;;;;;7.70;3.90;;;;;;;5.58;85.90;101404.13;103943;277;39655;-71
2023/05/18 03:35:31;;;;;;;10.10;4.90;;;;;;;5.62;86.02;101400.84;103850;296;38144;-71
2023/05/18 03:38:04;;;;;;;;;;;;;;;5.67;86.16;101404.64;103917;278;38076;-71
2023/05/18 03:40:40;;;;;;;8.80;3.80;;;;;;;5.69;86.46;101407.73;103948;278;38512;-71
2023/05/18 03:43:14;;;;;;;7.30;3.10;;;;;;;5.76;86.62;101403.56;103873;277;38560;-71
2023/05/18 03:45:48;;;;;;;16.70;4.00;;;;;;;5.82;86.79;101407.20;103861;278;38489;-72
2023/05/18 03:48:22;;;;;;;9.70;3.20;;;;;;;5.89;87.02;101407.70;103899;278;38816;-72
2023/05/18 03:50:59;;;;;;;8.40;3.30;;;;;;;5.98;87.06;101412.22;103921;277;38500;-71
2023/05/18 03:53:35;;;;;;;8.30;2.60;;;;;;;6.07;87.00;101417.73;103355;279;38848;-71
2023/05/18 03:56:12;;;;;;;7.60;2.20;;;;;;;6.16;86.96;101418.58;103748;278;175521;-69
2023/05/18 03:58:46;;;;;;;7.10;2.50;;;;;;;6.26;86.93;101424.96;103895;277;38278;-71
2023/05/18 04:01:22;;;;;;;10.00;3.20;;;;;;;6.35;86.77;101427.52;103768;277;176564;-70
2023/05/18 04:03:56;;;;;;;14.30;5.10;;;;;;;6.44;86.79;101426.28;103867;277;38508;-69
2023/05/18 04:06:34;;;;;;;11.40;3.20;;;;;;;6.54;86.83;101422.59;103776;277;38754;-72
2023/05/18 04:09:10;;;;;;;7.50;2.70;;;;;;;6.59;86.34;101423.09;103689;277;39644;-71
2023/05/18 04:11:50;;;;;;;9.20;2.50;;;;;;;6.66;86.08;101430.34;103795;278;38715;-71
2023/05/18 04:14:26;;;;;;;13.70;4.30;;;;;;;6.71;85.69;101430.84;103828;278;38456;-71
2023/05/18 04:17:03;;;;;;;7.00;2.30;;;;;;;6.75;85.29;101431.17;103826;274;38257;-71
2023/05/18 04:19:39;;;;;;;10.00;2.80;;;;;;;6.79;85.47;101433.90;103786;278;39025;-72
2023/05/18 04:22:15;;;;;;;9.50;2.60;;;;;;;6.84;85.54;101433.89;103837;277;38772;-71
2023/05/18 04:24:53;;;;;;;7.00;2.10;;;;;;;6.89;85.21;101439.92;103839;278;38744;-72
2023/05/18 04:27:29;;;;;;;7.30;2.30;;;;;;;6.94;85.08;101439.89;103845;278;38232;-72
2023/05/18 04:30:07;;;;;;;8.90;2.60;;;;;;;7.01;84.83;101440.73;103804;278;38325;-70
2023/05/18 04:32:46;;;;;;;7.00;2.40;;;;;;;7.09;84.44;101445.01;103811;278;38416;-70
2023/05/18 04:35:30;;;;;;;9.60;2.70;;;;;;;7.16;84.30;101446.52;103856;278;38531;-70
2023/05/18 04:38:05;;;;;;;9.20;3.20;;;;;;;7.23;84.06;101447.33;103812;278;38803;-72
2023/05/18 04:40:41;;;;;;;15.10;3.00;;;;;;;7.30;83.95;101447.13;103852;278;38495;-71
2023/05/18 04:43:21;;;;;;;9.20;3.50;;;;;;;7.39;83.68;101451.05;103713;278;38299;-70
2023/05/18 04:45:57;;;;;;;6.60;2.20;;;;;;;7.48;83.00;101450.98;103845;278;38745;-71
2023/05/18 04:48:35;;;;;;;8.90;2.50;;;;;;;7.57;83.06;101451.95;103816;278;38227;-70
2023/05/18 04:51:12;;;;;;;11.50;3.30;;;;;;;7.67;82.65;101457.59;103812;278;38434;-68
2023/05/18 04:53:50;;;;;;;10.90;2.70;;;;;;;7.73;82.28;101452.50;103781;266;38667;-71
2023/05/18 04:56:27;;;;;;;9.20;2.60;;;;;;;7.82;82.05;101456.77;103806;278;37566;-72
2023/05/18 04:59:01;;;;;;;6.70;2.70;;;;;;;7.92;82.05;101457.36;103825;278;38553;-70
2023/05/18 05:01:35;;;;;;;9.50;2.90;;;;;;;8.02;81.27;101455.36;103667;278;39976;-72
2023/05/18 05:04:10;;;;;;;9.30;2.90;;;;;;;8.10;81.02;101458.75;103801;278;38775;-69
2023/05/18 05:06:47;;;;;;;9.60;2.40;;;;;;;8.17;80.44;101459.70;103837;278;39138;-70
2023/05/18 05:09:22;;;;;;;8.30;2.60;;;;;;;8.23;80.19;101460.02;103832;278;38527;-69
2023/05/18 05:12:03;;;;;;;8.10;2.40;;;;;;;8.29;79.73;101463.08;103842;278;38638;-67
2023/05/18 05:14:37;;;;;;;8.10;2.40;;;;;;;8.35;79.32;101463.17;103212;278;905525;-70
2023/05/18 05:17:13;;;;;;;6.70;2.00;;;;;;;8.45;79.73;101458.73;103799;278;38488;-72
2023/05/18 05:19:47;;;;;;;6.90;2.20;;;;;;;8.57;78.92;101462.43;103824;278;38758;-71
2023/05/18 05:22:21;;;;;;;7.00;3.00;;;;;;;8.63;78.45;101462.19;103805;278;38677;-72
2023/05/18 05:24:57;;;;;;;6.90;2.60;;;;;;;8.72;78.32;101462.59;103833;278;39440;-71
2023/05/18 05:27:31;;;;;;;6.40;2.70;;;;;;;8.85;78.25;101473.73;103813;278;38462;-69
2023/05/18 05:30:07;;;;;;;6.10;2.40;;;;;;;8.97;77.64;101474.08;103784;278;39957;-71
2023/05/18 05:32:43;;;;;;;8.90;2.60;;;;;;;9.04;77.00;101477.11;103798;278;38534;-71
2023/05/18 05:35:20;;;;;;;6.20;2.00;;;;;;;9.15;77.18;101475.22;103810;278;38348;-72
2023/05/18 05:37:57;;;;;;;8.70;2.10;;;;;;;9.27;76.63;101476.61;103856;278;38806;-71
2023/05/18 05:40:34;;;;;;;9.30;3.20;;;;;;;9.43;77.09;101480.73;103828;266;38557;-71
2023/05/18 05:43:08;;;;;;;6.10;2.40;;;;;;;9.59;76.57;101481.16;103803;278;38393;-72
2023/05/18 05:45:46;;;;;;;8.90;2.20;;;;;;;9.71;76.43;101484.80;103862;278;38260;-71
2023/05/18 05:48:20;;;;;;;8.30;2.70;;;;;;;9.83;75.80;101482.51;103837;278;39455;-72
2023/05/18 05:51:01;;;;;;;7.40;2.00;;;;;;;9.95;75.18;101481.08;103858;278;38281;-71
2023/05/18 05:53:37;;;;;;;5.80;2.20;;;;;;;10.05;74.77;101483.16;103787;278;175341;-72
2023/05/18 05:56:14;;;;;;;9.90;2.70;;;;;;;10.17;73.87;101484.69;103845;278;38774;-70
2023/05/18 05:58:48;;;;;;;7.80;2.30;;;;;;;10.31;73.77;101480.80;103894;278;39552;-72
2023/05/18 06:01:24;;;;;;;6.00;1.90;;;;;;;10.43;73.00;101482.13;103885;278;38484;-72
2023/05/18 06:04:02;;;;;;;6.90;2.00;;;;;;;10.55;72.81;101484.69;103761;278;39949;-71
2023/05/18 06:06:41;;;;;;;7.20;2.00;;;;;;;10.71;72.25;101483.48;103879;278;38389;-71
2023/05/18 06:09:16;;;;;;;5.10;2.20;;;;;;;10.87;71.74;101481.76;103914;278;39563;-71
2023/05/18 06:11:57;;;;;;;6.50;2.30;;;;;;;11.06;72.16;101480.46;103717;278;172509;-71
2023/05/18 06:14:32;;;;;;;9.40;1.90;;;;;;;11.30;71.14;101483.59;103877;278;38482;-71
2023/05/18 06:17:10;;;;;;;4.10;1.40;;;;;;;11.51;71.00;101485.02;103879;278;39638;-69
2023/05/18 06:19:49;;;;;;;5.80;1.70;;;;;;;11.71;68.91;101486.79;103707;278;174698;-72
2023/05/18 06:22:24;;;;;;;6.50;1.30;;;;;;;11.79;65.92;101487.30;103847;278;38767;-74
2023/05/18 06:25:01;;;;;;;3.70;1.50;;;;;;;11.77;65.53;101485.77;103870;278;38282;-70
2023/05/18 06:27:38;;;;;;;3.40;1.10;;;;;;;11.85;65.67;101485.26;103867;278;39951;-72
2023/05/18 06:30:15;;;;;;;4.40;1.80;;;;;;;11.92;64.88;101484.20;103860;278;39277;-73
2023/05/18 06:32:54;;;;;;;6.10;1.80;;;;;;;12.02;65.71;101484.81;103848;278;38461;-72
2023/05/18 06:35:31;;;;;;;2.60;1.20;;;;;;;12.10;65.53;101487.04;103809;278;39165;-71
2023/05/18 06:38:08;;;;;;;5.10;1.80;;;;;;;12.20;65.72;101489.58;103858;278;38716;-72
2023/05/18 06:40:42;;;;;;;4.20;1.30;;;;;;;12.32;63.62;101493.11;103826;278;38231;-71
2023/05/18 06:43:18;;;;;;;4.00;1.30;;;;;;;12.38;63.33;101493.10;103873;278;38611;-70
2023/05/18 06:45:54;;;;;;;3.10;1.30;;;;;;;12.50;62.62;101498.39;103701;278;38989;-72
2023/05/18 06:48:37;;;;;;;2.80;1.10;;;;;;;12.63;61.90;101498.71;103848;278;39448;-71
2023/05/18 06:51:18;;;;;;;3.10;1.30;;;;;;;12.74;61.05;101499.81;103824;274;38281;-72
2023/05/18 06:53:51;;;;;;;6.10;1.50;;;;;;;12.86;59.76;101498.77;103892;278;38421;-71
2023/05/18 06:56:26;;;;;;;3.80;1.40;;;;;;;12.96;60.34;101503.02;103864;278;38498;-71
2023/05/18 06:59:04;;;;;;;5.70;1.60;;;;;;;13.09;59.78;101500.34;103881;277;39246;-71
2023/05/18 07:01:41;;;;;;;3.00;0.90;;;;;;;13.21;59.20;101501.75;103916;278;38906;-71
2023/05/18 07:04:21;;;;;;;4.40;1.10;;;;;;;13.30;58.73;101505.34;103742;278;38784;-71
2023/05/18 07:06:56;;;;;;;7.80;1.60;;;;;;;13.35;58.42;101508.86;103884;278;39026;-72
2023/05/18 07:09:33;;;;;;;4.10;1.20;;;;;;;13.39;57.88;101510.13;103707;277;39592;-70
2023/05/18 07:12:15;;;;;;;4.00;1.50;;;;;;;13.40;58.40;101508.15;103903;278;38516;-72
2023/05/18 07:14:54;;;;;;;5.80;1.40;;;;;;;13.50;58.04;101510.84;103748;278;38527;-72
2023/05/18 07:17:32;;;;;;;3.30;1.30;;;;;;;13.59;58.13;101510.90;103943;278;39810;-72
2023/05/18 07:20:11;;;;;;;5.50;1.20;;;;;;;13.58;57.52;101513.02;103940;278;38265;-71
2023/05/18 07:22:51;;;;;;;3.30;1.00;;;;;;;13.61;58.08;101511.34;103865;278;38229;-72
2023/05/18 07:25:29;;;;;;;5.10;1.50;;;;;;;13.67;58.30;101511.15;103875;277;39911;-72
2023/05/18 07:28:09;;;;;;;3.20;1.20;;;;;;;13.78;57.65;101514.14;103846;278;39955;-71
2023/05/18 07:30:50;;;;;;;5.70;1.10;;;;;;;13.81;57.04;101515.26;103881;278;39647;-71
2023/05/18 07:33:31;;;;;;;3.40;1.10;;;;;;;13.83;55.98;101517.47;103878;277;38419;-72
2023/05/18 07:36:12;;;;;;;2.90;1.30;;;;;;;13.79;55.67;101522.87;103892;278;38379;-71
2023/05/18 07:38:51;;;;;;;8.50;2.40;;;;;;;13.76;56.48;101526.80;103835;278;38245;-71
2023/05/18 07:41:30;;;;;;;3.80;1.40;;;;;;;13.84;55.17;101525.68;103871;277;39529;-72
2023/05/18 07:44:07;;;;;;;2.60;0.90;;;;;;;13.88;55.66;101524.84;103869;278;38234;-71
2023/05/18 07:46:47;;;;;;;3.90;1.00;;;;;;;14.04;56.44;101526.75;103908;278;39859;-72
2023/05/18 07:49:25;;;;;;;3.50;1.00;;;;;;;14.25;55.77;101526.92;103769;278;39422;-73
2023/05/18 07:52:01;;;;;;;5.90;1.20;;;;;;;14.49;55.25;101523.45;103848;278;38397;-72
2023/05/18 07:54:39;;;;;;;4.30;1.20;;;;;;;14.70;54.22;101521.30;103939;277;38270;-72
2023/05/18 07:57:15;;;;;;;3.40;1.10;;;;;;;14.96;54.62;101521.55;103876;278;38522;-70
2023/05/18 07:59:52;;;;;;;3.20;1.20;;;;;;;15.18;52.96;101526.00;103966;277;38240;-72
2023/05/18 08:02:28;;;;;;;1.80;1.00;;;;;;;15.44;53.61;101526.36;103737;278;38596;-72
2023/05/18 08:05:13;;;;;;;2.30;1.10;;;;;;;15.89;53.44;101531.41;103911;278;39477;-72
2023/05/18 08:07:50;;;;;;;2.40;0.60;;;;;;;16.27;51.58;101525.23;103911;278;38245;-73
2023/05/18 08:10:28;;;;;;;3.80;0.80;;;;;;;16.52;51.19;101530.46;103738;278;38413;-73
2023/05/18 08:13:07;;;;;;;3.20;0.70;;;;;;;16.82;48.83;101528.30;103868;278;38844;-73
2023/05/18 08:15:44;;;;;;;4.30;0.90;;;;;;;17.07;47.71;101529.95;103709;279;38483;-71
2023/05/18 08:18:27;;;;;;;2.10;0.90;;;;;;;17.18;46.54;101528.58;103889;278;38266;-73
2023/05/18 08:21:08;;;;;;;2.60;0.70;;;;;;;17.22;46.90;101535.58;103866;278;38665;-72
2023/05/18 08:23:56;;;;;;;1.10;0.60;;;;;;;17.32;46.64;101531.23;103865;278;38482;-73
2023/05/18 08:26:35;;;;;;;2.80;0.80;;;;;;;17.55;46.40;101527.50;103863;278;38288;-72
2023/05/18 08:29:13;;;;;;;2.70;0.90;;;;;;;17.74;46.25;101528.86;103753;278;174475;-72
2023/05/18 08:31:49;;;;;;;2.00;1.50;;;;;;;17.77;46.20;101527.16;103821;278;39421;-72
2023/05/18 08:34:25;;;;;;;2.50;0.90;;;;;;;17.71;46.09;101530.09;103820;278;38746;-72
2023/05/18 08:37:01;;;;;;;2.30;0.80;;;;;;;17.72;45.15;101535.52;103821;278;39403;-72
2023/05/18 08:39:37;;;;;;;3.30;0.70;;;;;;;17.57;44.82;101536.89;103807;278;39736;-72
2023/05/18 08:42:15;;;;;;;2.10;0.90;;;;;;;17.61;45.50;101534.27;103819;278;39663;-72
2023/05/18 08:44:54;;;;;;;3.10;1.50;;;;;;;17.68;45.66;101539.00;103837;278;38748;-73
2023/05/18 08:47:28;;;;;;;;;;;;;;;17.54;45.17;101540.60;103838;278;38464;-71
2023/05/18 08:50:02;;;;;;;3.50;1.20;;;;;;;17.43;46.51;101539.52;103848;278;38925;-71
2023/05/18 08:52:38;;;;;;;2.20;1.00;;;;;;;17.48;47.11;101536.99;103813;278;38589;-72
2023/05/18 08:55:16;;;;;;;4.20;0.90;;;;;;;17.40;45.49;101534.56;103797;278;38492;-73
2023/05/18 08:57:54;;;;;;;4.90;1.10;;;;;;;17.25;46.21;101528.94;103809;278;38767;-72
2023/05/18 09:00:28;;;;;;;3.40;1.50;;;;;;;17.22;46.61;101533.32;103831;278;38911;-73
2023/05/18 09:03:07;;;;;;;3.10;1.40;;;;;;;17.15;45.75;101535.23;103798;278;39699;-72
2023/05/18 09:05:42;;;;;;;1.60;0.80;;;;;;;17.02;46.22;101534.23;103798;278;38404;-72
2023/05/18 09:08:17;;;;;;;4.10;1.00;;;;;;;16.76;46.16;101535.06;103833;277;39018;-72
2023/05/18 09:10:51;;;;;;;4.40;1.40;;;;;;;16.59;47.48;101536.72;103767;278;38802;-72
2023/05/18 09:13:26;;;;;;;3.00;0.90;;;;;;;16.64;47.77;101538.42;103832;278;38842;-71
2023/05/18 09:16:06;;;;;;;3.20;1.10;;;;;;;16.76;46.99;101536.85;103781;278;38493;-76
2023/05/18 09:18:43;;;;;;;3.90;0.90;;;;;;;16.80;47.39;101536.69;103813;278;38249;-72
2023/05/18 09:21:20;;;;;;;2.60;0.90;;;;;;;16.76;46.82;101537.91;103834;278;39676;-72
2023/05/18 09:23:54;;;;;;;2.60;1.00;;;;;;;16.56;46.48;101539.81;103856;278;39412;-72
2023/05/18 09:26:29;;;;;;;2.60;1.10;;;;;;;16.42;46.83;101538.81;103835;278;38528;-72
2023/05/18 09:29:05;;;;;;;2.60;1.20;;;;;;;16.31;47.47;101538.61;103877;278;38261;-72
2023/05/18 09:31:44;;;;;;;1.60;0.90;;;;;;;16.24;47.87;101538.23;103901;278;38550;-73
2023/05/18 09:34:21;;;;;;;3.60;1.30;;;;;;;16.15;48.41;101540.75;103887;278;38584;-72
2023/05/18 09:36:56;;;;;;;3.90;0.90;;;;;;;16.21;49.02;101540.64;103913;277;39444;-73
2023/05/18 09:39:31;;;;;;;3.10;1.00;;;;;;;16.27;48.05;101541.64;103896;278;38291;-72
2023/05/18 09:42:06;;;;;;;2.50;0.90;;;;;;;16.22;47.79;101542.54;103857;278;38429;-72
2023/05/18 09:44:41;;;;;;;3.90;1.20;;;;;;;16.15;47.35;101545.82;103887;278;38281;-73
2023/05/18 09:47:16;;;;;;;2.90;1.00;;;;;;;16.12;47.55;101545.59;103905;278;38240;-73
2023/05/18 09:49:55;;;;;;;2.10;0.80;;;;;;;16.19;48.31;101543.71;103879;278;38394;-71
2023/05/18 09:52:32;;;;;;;3.40;1.30;;;;;;;16.31;47.78;101546.57;103833;278;38357;-69
2023/05/18 09:55:10;;;;;;;3.90;1.40;;;;;;;16.40;47.64;101541.56;103987;266;38493;-71
2023/05/18 09:57:45;;;;;;;2.30;0.80;;;;;;;16.52;48.55;101541.07;103915;278;38253;-72
2023/05/18 10:00:21;;;;;;;3.30;1.00;;;;;;;16.72;47.89;101542.84;103971;278;38285;-72
2023/05/18 10:02:55;;;;;;;2.90;0.90;;;;;;;16.69;47.41;101545.08;103809;278;38438;-72
2023/05/18 10:05:30;;;;;;;1.60;0.80;;;;;;;16.57;47.70;101545.79;103834;278;38467;-73
2023/05/18 10:08:05;;;;;;;3.60;0.90;;;;;;;16.40;47.66;101545.30;103865;278;38665;-72
2023/05/18 10:10:44;;;;;;;4.20;1.20;;;;;;;16.23;47.92;101542.66;103866;278;39453;-72
2023/05/18 10:13:19;;;;;;;3.30;1.00;;;;;;;16.25;47.96;101539.42;103853;278;38879;-71
2023/05/18 10:15:55;;;;;;;2.20;0.80;;;;;;;16.31;47.97;101538.46;103817;278;40231;-72
2023/05/18 10:18:32;;;;;;;2.00;0.90;;;;;;;16.47;47.55;101534.21;103829;278;38586;-72
2023/05/18 10:21:08;;;;;;;3.40;0.80;;;;;;;16.57;47.55;101538.05;103850;277;38341;-74
2023/05/18 10:23:42;;;;;;;2.40;0.90;;;;;;;16.55;47.34;101534.41;103899;278;38365;-73
2023/05/18 10:26:20;;;;;;;1.50;0.60;;;;;;;16.64;48.48;101535.42;103835;278;38455;-73
2023/05/18 10:28:56;;;;;;;2.10;0.70;;;;;;;16.84;48.88;101532.09;103892;278;39644;-72
2023/05/18 10:31:30;;;;;;;2.00;0.70;;;;;;;16.95;48.72;101532.29;103832;277;38263;-71
2023/05/18 10:34:12;;;;;;;1.70;0.50;;;;;;;16.91;47.36;101533.67;103818;278;38235;-71
2023/05/18 10:36:45;;;;;;;;;;;;;;;16.90;47.22;101532.33;103847;277;38249;-72
2023/05/18 10:39:26;;;;;;;3.00;0.60;;;;;;;16.80;46.87;101532.11;103877;278;38962;-70
2023/05/18 10:42:08;;;;;;;3.70;0.60;;;;;;;16.72;46.71;101527.14;103872;277;39671;-70
2023/05/18 10:44:43;;;;;;;1.30;0.60;;;;;;;16.64;46.24;101525.39;103876;278;38594;-73
2023/05/18 10:47:32;;;;;;;1.60;0.40;;;;;;;16.59;46.76;101526.82;103916;278;39870;-73
2023/05/18 10:50:08;;;;;;;1.80;0.50;;;;;;;16.63;46.39;101529.48;103924;278;38499;-73
2023/05/18 10:52:42;;;;;;;4.00;0.70;;;;;;;16.61;46.76;101527.98;103951;278;38634;-73
2023/05/18 10:55:16;;;;;;;1.60;0.50;;;;;;;16.60;47.30;101530.16;103892;278;38273;-70
2023/05/18 10:57:54;;;;;;;0.90;0.40;;;;;;;16.60;47.44;101528.90;103879;278;39285;-72
2023/05/18 11:00:28;;;;;;;2.50;0.70;;;;;;;16.68;47.55;101531.02;103904;278;38398;-73
2023/05/18 11:03:03;;;;;;;1.70;0.40;;;;;;;16.83;46.71;101530.53;103863;278;38256;-70
2023/05/18 11:05:38;;;;;;;1.80;0.80;;;;;;;16.93;46.15;101528.65;103900;278;38536;-73
2023/05/18 11:08:13;;;;;;;2.00;0.60;;;;;;;16.93;45.71;101523.20;103884;277;38456;-72
2023/05/18 11:10:48;;;;;;;1.80;0.70;;;;;;;16.95;45.49;101522.40;103895;278;38462;-72
2023/05/18 11:13:25;;;;;;;1.30;0.40;;;;;;;16.89;46.20;101527.79;103939;277;38324;-71
2023/05/18 11:16:14;;;;;;;4.30;0.80;;;;;;;16.85;46.33;101530.09;103765;277;174868;-72
2023/05/18 11:18:53;;;;;;;3.40;0.60;;;;;;;16.94;46.10;101525.79;103889;277;39075;-73
2023/05/18 11:21:55;;;;;;;1.80;0.60;;;;;;;16.98;46.62;101524.17;103829;277;39689;-73
2023/05/18 11:24:33;;;;;;;4.30;0.60;;;;;;;17.04;46.20;101524.81;103710;279;39997;-72
2023/05/18 11:27:16;;;;;;;4.30;0.60;;;;;;;17.07;45.70;101525.04;103848;278;40020;-72
2023/05/18 11:29:49;;;;;;;6.50;0.90;;;;;;;17.11;45.73;101520.95;103907;277;39907;-71
2023/05/18 11:32:32;;;;;;;3.70;0.60;;;;;;;17.09;45.19;101517.52;103698;278;39696;-72
2023/05/18 11:35:12;;;;;;;6.00;2.00;;;;;;;17.09;45.87;101521.03;103861;277;39915;-70
2023/05/18 11:37:53;;;;;;;2.10;1.00;;;;;;;17.11;45.58;101518.67;103733;277;174944;-71
2023/05/18 11:40:52;;;;;;;1.30;0.90;;;;;;;17.01;46.13;101514.19;103921;278;38255;-73
2023/05/18 11:43:30;;;;;;;6.90;0.80;;;;;;;17.00;46.05;101519.16;103877;277;38530;-72
2023/05/18 11:46:05;;;;;;;2.70;0.70;;;;;;;17.09;45.39;101521.90;103858;278;39408;-73
2023/05/18 11:48:38;;;;;;;1.70;0.80;;;;;;;17.07;44.44;101524.68;103896;278;39667;-72
2023/05/18 11:51:12;;;;;;;1.70;0.50;;;;;;;16.96;44.81;101521.67;103246;278;748773;-70
2023/05/18 11:53:50;;;;;;;3.00;0.60;;;;;;;16.95;44.97;101522.92;103735;278;39905;-72
2023/05/18 11:56:26;;;;;;;4.50;0.60;;;;;;;16.93;45.28;101518.77;103660;277;39780;-72
2023/05/18 11:59:17;;;;;;;6.80;1.30;;;;;;;16.94;45.19;101523.67;103942;278;38836;-72
2023/05/18 12:01:55;;;;;;;4.80;1.00;;;;;;;16.88;45.24;101523.79;103979;278;38361;-72
2023/05/18 12:04:32;;;;;;;3.70;1.10;;;;;;;16.85;45.46;101525.70;103949;278;38322;-72
2023/05/18 12:07:10;;;;;;;2.00;0.70;;;;;;;16.81;45.61;101522.54;103900;277;38496;-72
2023/05/18 12:09:46;;;;;;;6.90;0.70;;;;;;;16.74;45.39;101527.41;103893;278;38504;-73
2023/05/18 12:12:24;;;;;;;3.90;1.40;;;;;;;16.69;45.70;101531.51;103792;278;175220;-72
2023/05/18 12:15:00;;;;;;;3.10;1.00;;;;;;;16.63;45.73;101529.48;103905;278;38500;-73